sensor_id;sensor_type;location;lat;lon;timestamp;temperature;humidity
10644;DHT22;5370;50.132;8.626;2023-06-22T00:01:55;22.70;66.80
10644;DHT22;5370;50.132;8.626;2023-06-22T00:04:20;22.70;66.30
10644;DHT22;5370;50.132;8.626;2023-06-22T00:06:46;22.80;66.50
10644;DHT22;5370;50.132;8.626;2023-06-22T00:09:12;22.70;66.50
10644;DHT22;5370;50.132;8.626;2023-06-22T00:11:38;22.70;66.50
10644;DHT22;5370;50.132;8.626;2023-06-22T00:14:04;22.70;66.60
10644;DHT22;5370;50.132;8.626;2023-06-22T00:16:33;22.60;66.70
10644;DHT22;5370;50.132;8.626;2023-06-22T00:18:59;22.60;66.80
10644;DHT22;5370;50.132;8.626;2023-06-22T00:21:29;22.60;67.60
10644;DHT22;5370;50.132;8.626;2023-06-22T00:23:56;22.60;66.80
10644;DHT22;5370;50.132;8.626;2023-06-22T00:26:22;22.60;66.80
10644;DHT22;5370;50.132;8.626;2023-06-22T00:28:48;22.60;66.80
10644;DHT22;5370;50.132;8.626;2023-06-22T00:31:14;22.60;66.90
10644;DHT22;5370;50.132;8.626;2023-06-22T00:33:39;22.60;67.10
10644;DHT22;5370;50.132;8.626;2023-06-22T00:36:05;22.60;67.10
10644;DHT22;5370;50.132;8.626;2023-06-22T00:38:33;22.70;67.20
10644;DHT22;5370;50.132;8.626;2023-06-22T00:40:58;22.80;67.30
10644;DHT22;5370;50.132;8.626;2023-06-22T00:43:24;22.80;67.10
10644;DHT22;5370;50.132;8.626;2023-06-22T00:45:49;22.90;66.90
10644;DHT22;5370;50.132;8.626;2023-06-22T00:48:15;22.90;66.70
10644;DHT22;5370;50.132;8.626;2023-06-22T00:50:41;23.00;66.70
10644;DHT22;5370;50.132;8.626;2023-06-22T00:53:08;23.00;66.30
10644;DHT22;5370;50.132;8.626;2023-06-22T00:55:38;23.10;66.50
10644;DHT22;5370;50.132;8.626;2023-06-22T00:58:09;23.10;66.00
10644;DHT22;5370;50.132;8.626;2023-06-22T01:00:36;23.10;65.90
10644;DHT22;5370;50.132;8.626;2023-06-22T01:03:03;23.20;65.90
10644;DHT22;5370;50.132;8.626;2023-06-22T01:05:29;23.10;65.80
10644;DHT22;5370;50.132;8.626;2023-06-22T01:18:41;23.30;67.50
10644;DHT22;5370;50.132;8.626;2023-06-22T01:21:08;23.30;67.80
10644;DHT22;5370;50.132;8.626;2023-06-22T01:26:44;23.40;69.50
10644;DHT22;5370;50.132;8.626;2023-06-22T01:29:16;23.40;70.10
10644;DHT22;5370;50.132;8.626;2023-06-22T01:31:44;23.40;70.80
10644;DHT22;5370;50.132;8.626;2023-06-22T01:34:11;23.30;71.70
10644;DHT22;5370;50.132;8.626;2023-06-22T01:36:38;23.10;72.60
10644;DHT22;5370;50.132;8.626;2023-06-22T01:39:05;22.90;73.00
10644;DHT22;5370;50.132;8.626;2023-06-22T01:41:36;22.70;73.40
10644;DHT22;5370;50.132;8.626;2023-06-22T01:44:05;22.60;74.20
10644;DHT22;5370;50.132;8.626;2023-06-22T01:46:32;22.40;75.50
10644;DHT22;5370;50.132;8.626;2023-06-22T01:48:59;22.10;76.90
10644;DHT22;5370;50.132;8.626;2023-06-22T01:51:24;22.00;78.10
10644;DHT22;5370;50.132;8.626;2023-06-22T01:53:50;21.80;79.20
10644;DHT22;5370;50.132;8.626;2023-06-22T01:56:17;21.80;80.00
10644;DHT22;5370;50.132;8.626;2023-06-22T01:59:03;21.70;80.70
10644;DHT22;5370;50.132;8.626;2023-06-22T02:01:38;21.70;81.60
10644;DHT22;5370;50.132;8.626;2023-06-22T02:04:13;21.80;82.60
10644;DHT22;5370;50.132;8.626;2023-06-22T02:06:42;21.90;83.20
10644;DHT22;5370;50.132;8.626;2023-06-22T02:09:11;21.90;83.30
10644;DHT22;5370;50.132;8.626;2023-06-22T02:11:39;21.90;83.40
10644;DHT22;5370;50.132;8.626;2023-06-22T02:14:07;22.00;83.80
10644;DHT22;5370;50.132;8.626;2023-06-22T02:16:33;21.90;83.60
10644;DHT22;5370;50.132;8.626;2023-06-22T02:19:01;21.80;83.70
10644;DHT22;5370;50.132;8.626;2023-06-22T02:21:28;21.80;84.20
10644;DHT22;5370;50.132;8.626;2023-06-22T02:23:54;21.70;84.70
10644;DHT22;5370;50.132;8.626;2023-06-22T02:26:19;21.70;85.20
10644;DHT22;5370;50.132;8.626;2023-06-22T02:28:45;21.60;85.90
10644;DHT22;5370;50.132;8.626;2023-06-22T02:31:11;21.60;86.60
10644;DHT22;5370;50.132;8.626;2023-06-22T02:33:36;21.50;87.10
10644;DHT22;5370;50.132;8.626;2023-06-22T02:36:02;21.40;87.80
10644;DHT22;5370;50.132;8.626;2023-06-22T02:38:37;21.40;88.60
10644;DHT22;5370;50.132;8.626;2023-06-22T02:41:03;21.40;89.80
10644;DHT22;5370;50.132;8.626;2023-06-22T02:43:28;21.30;90.10
10644;DHT22;5370;50.132;8.626;2023-06-22T02:45:54;21.30;90.30
10644;DHT22;5370;50.132;8.626;2023-06-22T02:48:20;21.30;90.60
10644;DHT22;5370;50.132;8.626;2023-06-22T02:50:46;21.30;90.80
10644;DHT22;5370;50.132;8.626;2023-06-22T02:53:11;21.30;90.90
10644;DHT22;5370;50.132;8.626;2023-06-22T02:55:37;21.30;91.10
10644;DHT22;5370;50.132;8.626;2023-06-22T02:58:05;21.30;91.30
10644;DHT22;5370;50.132;8.626;2023-06-22T03:00:31;21.30;91.50
10644;DHT22;5370;50.132;8.626;2023-06-22T03:02:57;21.30;91.70
10644;DHT22;5370;50.132;8.626;2023-06-22T03:05:23;21.30;91.90
10644;DHT22;5370;50.132;8.626;2023-06-22T03:07:49;21.30;92.10
10644;DHT22;5370;50.132;8.626;2023-06-22T03:10:15;21.20;92.20
10644;DHT22;5370;50.132;8.626;2023-06-22T03:12:42;21.20;92.40
10644;DHT22;5370;50.132;8.626;2023-06-22T03:15:10;21.20;92.60
10644;DHT22;5370;50.132;8.626;2023-06-22T03:17:37;21.10;92.80
10644;DHT22;5370;50.132;8.626;2023-06-22T03:20:04;21.10;93.10
10644;DHT22;5370;50.132;8.626;2023-06-22T03:22:40;21.00;93.20
10644;DHT22;5370;50.132;8.626;2023-06-22T03:25:07;21.00;93.50
10644;DHT22;5370;50.132;8.626;2023-06-22T03:27:36;20.90;93.70
10644;DHT22;5370;50.132;8.626;2023-06-22T03:30:02;20.90;93.90
10644;DHT22;5370;50.132;8.626;2023-06-22T03:32:27;20.90;94.00
10644;DHT22;5370;50.132;8.626;2023-06-22T03:34:53;20.90;94.10
10644;DHT22;5370;50.132;8.626;2023-06-22T03:37:19;20.90;94.10
10644;DHT22;5370;50.132;8.626;2023-06-22T03:39:44;20.90;94.20
10644;DHT22;5370;50.132;8.626;2023-06-22T03:42:10;20.90;94.20
10644;DHT22;5370;50.132;8.626;2023-06-22T03:44:35;20.90;94.30
10644;DHT22;5370;50.132;8.626;2023-06-22T03:47:05;20.90;94.30
10644;DHT22;5370;50.132;8.626;2023-06-22T03:49:32;20.90;94.40
10644;DHT22;5370;50.132;8.626;2023-06-22T03:51:58;20.90;94.40
10644;DHT22;5370;50.132;8.626;2023-06-22T03:54:23;20.90;94.40
10644;DHT22;5370;50.132;8.626;2023-06-22T03:56:49;20.90;94.40
10644;DHT22;5370;50.132;8.626;2023-06-22T03:59:14;20.90;94.50
10644;DHT22;5370;50.132;8.626;2023-06-22T04:01:40;21.00;94.60
10644;DHT22;5370;50.132;8.626;2023-06-22T04:04:05;21.00;94.60
10644;DHT22;5370;50.132;8.626;2023-06-22T04:06:31;21.10;94.60
10644;DHT22;5370;50.132;8.626;2023-06-22T04:08:56;21.10;94.50
10644;DHT22;5370;50.132;8.626;2023-06-22T04:11:22;21.20;94.50
10644;DHT22;5370;50.132;8.626;2023-06-22T04:13:47;21.30;94.40
10644;DHT22;5370;50.132;8.626;2023-06-22T04:16:14;21.30;94.10
10644;DHT22;5370;50.132;8.626;2023-06-22T04:18:40;21.40;93.80
10644;DHT22;5370;50.132;8.626;2023-06-22T04:21:05;21.40;93.60
10644;DHT22;5370;50.132;8.626;2023-06-22T04:23:31;21.50;93.60
10644;DHT22;5370;50.132;8.626;2023-06-22T04:25:56;21.50;93.40
10644;DHT22;5370;50.132;8.626;2023-06-22T04:28:23;21.50;93.20
10644;DHT22;5370;50.132;8.626;2023-06-22T04:30:48;21.50;93.10
10644;DHT22;5370;50.132;8.626;2023-06-22T04:33:15;21.50;93.00
10644;DHT22;5370;50.132;8.626;2023-06-22T04:35:40;21.50;93.00
10644;DHT22;5370;50.132;8.626;2023-06-22T04:38:09;21.40;93.10
10644;DHT22;5370;50.132;8.626;2023-06-22T04:40:34;21.40;93.20
10644;DHT22;5370;50.132;8.626;2023-06-22T04:43:00;21.40;93.30
10644;DHT22;5370;50.132;8.626;2023-06-22T04:45:28;21.30;93.40
10644;DHT22;5370;50.132;8.626;2023-06-22T04:47:57;21.30;93.50
10644;DHT22;5370;50.132;8.626;2023-06-22T04:50:22;21.30;93.60
10644;DHT22;5370;50.132;8.626;2023-06-22T04:52:50;21.30;93.70
10644;DHT22;5370;50.132;8.626;2023-06-22T04:55:16;21.30;93.70
10644;DHT22;5370;50.132;8.626;2023-06-22T04:57:44;21.40;93.80
10644;DHT22;5370;50.132;8.626;2023-06-22T05:00:18;21.40;93.80
10644;DHT22;5370;50.132;8.626;2023-06-22T05:02:46;21.50;93.80
10644;DHT22;5370;50.132;8.626;2023-06-22T05:05:12;21.50;93.80
10644;DHT22;5370;50.132;8.626;2023-06-22T05:07:46;21.50;93.70
10644;DHT22;5370;50.132;8.626;2023-06-22T05:10:14;21.60;93.70
10644;DHT22;5370;50.132;8.626;2023-06-22T05:12:40;21.60;93.70
10644;DHT22;5370;50.132;8.626;2023-06-22T05:15:09;21.70;93.60
10644;DHT22;5370;50.132;8.626;2023-06-22T05:17:36;21.70;93.70
10644;DHT22;5370;50.132;8.626;2023-06-22T05:20:02;21.80;93.30
10644;DHT22;5370;50.132;8.626;2023-06-22T05:22:31;21.90;93.10
10644;DHT22;5370;50.132;8.626;2023-06-22T05:24:57;22.00;92.90
10644;DHT22;5370;50.132;8.626;2023-06-22T05:27:22;22.10;92.70
10644;DHT22;5370;50.132;8.626;2023-06-22T05:29:48;22.20;92.50
10644;DHT22;5370;50.132;8.626;2023-06-22T05:32:13;22.30;92.30
10644;DHT22;5370;50.132;8.626;2023-06-22T05:34:39;22.40;91.80
10644;DHT22;5370;50.132;8.626;2023-06-22T05:37:05;22.60;91.60
10644;DHT22;5370;50.132;8.626;2023-06-22T05:39:31;22.80;91.30
10644;DHT22;5370;50.132;8.626;2023-06-22T05:41:57;23.00;90.80
10644;DHT22;5370;50.132;8.626;2023-06-22T05:44:22;23.20;90.20
10644;DHT22;5370;50.132;8.626;2023-06-22T05:46:48;23.60;90.10
10644;DHT22;5370;50.132;8.626;2023-06-22T05:49:14;24.30;88.50
10644;DHT22;5370;50.132;8.626;2023-06-22T05:51:40;25.30;83.60
10644;DHT22;5370;50.132;8.626;2023-06-22T05:54:06;26.20;78.50
10644;DHT22;5370;50.132;8.626;2023-06-22T05:56:33;27.10;73.30
10644;DHT22;5370;50.132;8.626;2023-06-22T05:58:59;27.80;68.90
10644;DHT22;5370;50.132;8.626;2023-06-22T06:01:24;28.50;65.10
10644;DHT22;5370;50.132;8.626;2023-06-22T06:03:51;29.20;62.30
10644;DHT22;5370;50.132;8.626;2023-06-22T06:06:18;29.80;58.30
10644;DHT22;5370;50.132;8.626;2023-06-22T06:08:45;30.30;56.30
10644;DHT22;5370;50.132;8.626;2023-06-22T06:11:11;30.60;54.20
10644;DHT22;5370;50.132;8.626;2023-06-22T06:13:36;30.80;53.60
10644;DHT22;5370;50.132;8.626;2023-06-22T06:16:02;31.00;52.80
10644;DHT22;5370;50.132;8.626;2023-06-22T06:18:27;31.20;52.00
10644;DHT22;5370;50.132;8.626;2023-06-22T06:20:53;31.50;51.00
10644;DHT22;5370;50.132;8.626;2023-06-22T06:25:55;32.10;49.50
10644;DHT22;5370;50.132;8.626;2023-06-22T06:28:20;32.50;48.80
10644;DHT22;5370;50.132;8.626;2023-06-22T06:30:46;32.80;47.70
10644;DHT22;5370;50.132;8.626;2023-06-22T06:33:12;33.10;46.90
10644;DHT22;5370;50.132;8.626;2023-06-22T06:35:38;33.60;46.40
10644;DHT22;5370;50.132;8.626;2023-06-22T06:38:04;34.00;45.00
10644;DHT22;5370;50.132;8.626;2023-06-22T06:40:29;33.90;44.30
10644;DHT22;5370;50.132;8.626;2023-06-22T06:42:55;34.20;44.20
10644;DHT22;5370;50.132;8.626;2023-06-22T06:45:22;34.80;43.40
10644;DHT22;5370;50.132;8.626;2023-06-22T06:47:48;35.10;42.40
10644;DHT22;5370;50.132;8.626;2023-06-22T06:50:14;35.30;41.70
10644;DHT22;5370;50.132;8.626;2023-06-22T06:52:40;35.60;41.50
10644;DHT22;5370;50.132;8.626;2023-06-22T06:55:07;36.00;40.90
10644;DHT22;5370;50.132;8.626;2023-06-22T06:57:33;36.40;40.50
10644;DHT22;5370;50.132;8.626;2023-06-22T06:59:59;36.50;39.60
10644;DHT22;5370;50.132;8.626;2023-06-22T07:02:26;36.00;39.60
10644;DHT22;5370;50.132;8.626;2023-06-22T07:04:53;35.70;40.00
10644;DHT22;5370;50.132;8.626;2023-06-22T07:07:21;35.70;40.30
10644;DHT22;5370;50.132;8.626;2023-06-22T07:09:46;35.80;40.10
10644;DHT22;5370;50.132;8.626;2023-06-22T07:12:12;35.60;40.10
10644;DHT22;5370;50.132;8.626;2023-06-22T07:14:37;35.40;40.50
10644;DHT22;5370;50.132;8.626;2023-06-22T07:17:03;34.90;40.90
10644;DHT22;5370;50.132;8.626;2023-06-22T07:19:29;34.50;41.70
10644;DHT22;5370;50.132;8.626;2023-06-22T07:21:55;34.40;41.90
10644;DHT22;5370;50.132;8.626;2023-06-22T07:24:21;34.20;42.30
10644;DHT22;5370;50.132;8.626;2023-06-22T07:26:48;34.20;42.60
10644;DHT22;5370;50.132;8.626;2023-06-22T07:29:18;34.20;42.60
10644;DHT22;5370;50.132;8.626;2023-06-22T07:31:45;34.50;42.50
10644;DHT22;5370;50.132;8.626;2023-06-22T07:34:11;35.00;41.90
10644;DHT22;5370;50.132;8.626;2023-06-22T07:36:37;35.70;41.10
10644;DHT22;5370;50.132;8.626;2023-06-22T07:39:03;36.30;39.60
10644;DHT22;5370;50.132;8.626;2023-06-22T07:41:29;36.70;38.70
10644;DHT22;5370;50.132;8.626;2023-06-22T07:43:55;37.40;37.60
10644;DHT22;5370;50.132;8.626;2023-06-22T07:46:20;38.00;36.60
10644;DHT22;5370;50.132;8.626;2023-06-22T07:48:46;38.50;35.60
10644;DHT22;5370;50.132;8.626;2023-06-22T07:51:11;38.80;35.00
10644;DHT22;5370;50.132;8.626;2023-06-22T07:53:41;39.20;34.50
10644;DHT22;5370;50.132;8.626;2023-06-22T07:56:07;39.60;34.10
10644;DHT22;5370;50.132;8.626;2023-06-22T07:58:33;39.70;33.20
10644;DHT22;5370;50.132;8.626;2023-06-22T08:00:59;39.80;32.80
10644;DHT22;5370;50.132;8.626;2023-06-22T08:03:24;40.20;32.70
10644;DHT22;5370;50.132;8.626;2023-06-22T08:05:50;40.60;32.00
10644;DHT22;5370;50.132;8.626;2023-06-22T08:08:16;41.30;31.40
10644;DHT22;5370;50.132;8.626;2023-06-22T08:10:42;42.00;30.60
10644;DHT22;5370;50.132;8.626;2023-06-22T08:13:08;42.70;29.30
10644;DHT22;5370;50.132;8.626;2023-06-22T08:15:33;43.20;28.50
10644;DHT22;5370;50.132;8.626;2023-06-22T08:17:59;43.30;28.30
10644;DHT22;5370;50.132;8.626;2023-06-22T08:20:26;43.30;28.10
10644;DHT22;5370;50.132;8.626;2023-06-22T08:22:55;43.40;27.90
10644;DHT22;5370;50.132;8.626;2023-06-22T08:25:21;43.40;28.10
10644;DHT22;5370;50.132;8.626;2023-06-22T08:27:47;43.60;27.80
10644;DHT22;5370;50.132;8.626;2023-06-22T08:30:14;43.40;27.90
10644;DHT22;5370;50.132;8.626;2023-06-22T08:32:40;43.30;27.80
10644;DHT22;5370;50.132;8.626;2023-06-22T08:35:06;43.70;27.80
10644;DHT22;5370;50.132;8.626;2023-06-22T08:37:34;43.70;27.30
10644;DHT22;5370;50.132;8.626;2023-06-22T08:40:02;43.40;27.70
10644;DHT22;5370;50.132;8.626;2023-06-22T08:42:33;42.90;27.80
10644;DHT22;5370;50.132;8.626;2023-06-22T08:44:59;42.20;28.30
10644;DHT22;5370;50.132;8.626;2023-06-22T08:47:24;41.70;29.00
10644;DHT22;5370;50.132;8.626;2023-06-22T08:49:50;40.80;29.60
10644;DHT22;5370;50.132;8.626;2023-06-22T08:52:17;39.80;30.70
10644;DHT22;5370;50.132;8.626;2023-06-22T08:54:43;38.60;32.30
10644;DHT22;5370;50.132;8.626;2023-06-22T08:57:08;37.30;34.10
10644;DHT22;5370;50.132;8.626;2023-06-22T08:59:34;36.40;35.90
10644;DHT22;5370;50.132;8.626;2023-06-22T09:01:59;35.60;37.30
10644;DHT22;5370;50.132;8.626;2023-06-22T09:04:25;34.90;38.50
10644;DHT22;5370;50.132;8.626;2023-06-22T09:06:50;34.30;39.70
10644;DHT22;5370;50.132;8.626;2023-06-22T09:09:18;33.60;41.10
10644;DHT22;5370;50.132;8.626;2023-06-22T09:11:43;33.00;42.30
10644;DHT22;5370;50.132;8.626;2023-06-22T09:14:11;32.60;43.30
10644;DHT22;5370;50.132;8.626;2023-06-22T09:16:36;32.40;44.00
10644;DHT22;5370;50.132;8.626;2023-06-22T09:19:02;32.20;44.30
10644;DHT22;5370;50.132;8.626;2023-06-22T09:21:28;32.20;44.70
10644;DHT22;5370;50.132;8.626;2023-06-22T09:23:54;32.20;44.90
10644;DHT22;5370;50.132;8.626;2023-06-22T09:26:20;32.10;45.00
10644;DHT22;5370;50.132;8.626;2023-06-22T09:28:46;32.00;45.30
10644;DHT22;5370;50.132;8.626;2023-06-22T09:31:12;32.20;45.50
10644;DHT22;5370;50.132;8.626;2023-06-22T09:33:40;32.30;45.20
10644;DHT22;5370;50.132;8.626;2023-06-22T09:36:06;32.40;45.20
10644;DHT22;5370;50.132;8.626;2023-06-22T09:38:35;32.40;44.80
10644;DHT22;5370;50.132;8.626;2023-06-22T09:41:01;32.20;44.90
10644;DHT22;5370;50.132;8.626;2023-06-22T09:43:27;32.10;45.10
10644;DHT22;5370;50.132;8.626;2023-06-22T09:45:53;32.00;45.40
10644;DHT22;5370;50.132;8.626;2023-06-22T09:48:18;31.90;46.20
10644;DHT22;5370;50.132;8.626;2023-06-22T09:50:44;31.90;46.50
10644;DHT22;5370;50.132;8.626;2023-06-22T09:53:09;31.90;46.20
10644;DHT22;5370;50.132;8.626;2023-06-22T09:55:35;32.00;46.00
10644;DHT22;5370;50.132;8.626;2023-06-22T09:58:00;32.10;46.10
10644;DHT22;5370;50.132;8.626;2023-06-22T10:00:26;32.30;45.90
10644;DHT22;5370;50.132;8.626;2023-06-22T10:02:52;32.40;45.70
10644;DHT22;5370;50.132;8.626;2023-06-22T10:05:18;32.40;45.20
10644;DHT22;5370;50.132;8.626;2023-06-22T10:07:43;32.20;45.20
10644;DHT22;5370;50.132;8.626;2023-06-22T10:10:13;32.20;45.90
10644;DHT22;5370;50.132;8.626;2023-06-22T10:12:56;32.30;45.50
10644;DHT22;5370;50.132;8.626;2023-06-22T10:15:22;32.50;45.20
10644;DHT22;5370;50.132;8.626;2023-06-22T10:17:48;32.70;44.80
10644;DHT22;5370;50.132;8.626;2023-06-22T10:20:14;32.90;44.30
10644;DHT22;5370;50.132;8.626;2023-06-22T10:22:44;33.10;44.10
10644;DHT22;5370;50.132;8.626;2023-06-22T10:25:11;33.20;42.50
10644;DHT22;5370;50.132;8.626;2023-06-22T10:27:37;33.20;41.80
10644;DHT22;5370;50.132;8.626;2023-06-22T10:30:07;33.00;41.10
10644;DHT22;5370;50.132;8.626;2023-06-22T10:32:33;32.90;41.50
10644;DHT22;5370;50.132;8.626;2023-06-22T10:34:59;32.90;41.90
10644;DHT22;5370;50.132;8.626;2023-06-22T10:37:24;33.00;41.60
10644;DHT22;5370;50.132;8.626;2023-06-22T10:39:50;33.00;41.80
10644;DHT22;5370;50.132;8.626;2023-06-22T10:42:15;33.20;42.00
10644;DHT22;5370;50.132;8.626;2023-06-22T10:44:41;33.40;41.70
10644;DHT22;5370;50.132;8.626;2023-06-22T10:47:08;33.60;41.20
10644;DHT22;5370;50.132;8.626;2023-06-22T10:49:34;33.80;40.90
10644;DHT22;5370;50.132;8.626;2023-06-22T10:51:59;34.00;40.50
10644;DHT22;5370;50.132;8.626;2023-06-22T10:54:25;34.00;39.80
10644;DHT22;5370;50.132;8.626;2023-06-22T10:56:50;34.00;39.60
10644;DHT22;5370;50.132;8.626;2023-06-22T10:59:16;33.80;39.20
10644;DHT22;5370;50.132;8.626;2023-06-22T11:01:41;33.70;39.20
10644;DHT22;5370;50.132;8.626;2023-06-22T11:04:07;33.60;39.60
10644;DHT22;5370;50.132;8.626;2023-06-22T11:06:33;33.50;40.00
10644;DHT22;5370;50.132;8.626;2023-06-22T11:08:58;33.50;40.10
10644;DHT22;5370;50.132;8.626;2023-06-22T11:11:25;33.60;40.10
10644;DHT22;5370;50.132;8.626;2023-06-22T11:13:50;33.60;39.80
10644;DHT22;5370;50.132;8.626;2023-06-22T11:16:16;33.60;39.50
10644;DHT22;5370;50.132;8.626;2023-06-22T11:18:41;33.50;39.70
10644;DHT22;5370;50.132;8.626;2023-06-22T11:21:07;33.50;40.10
10644;DHT22;5370;50.132;8.626;2023-06-22T11:23:32;33.60;39.90
10644;DHT22;5370;50.132;8.626;2023-06-22T11:25:58;33.70;39.60
10644;DHT22;5370;50.132;8.626;2023-06-22T11:28:24;33.70;39.50
10644;DHT22;5370;50.132;8.626;2023-06-22T11:30:49;33.60;39.90
10644;DHT22;5370;50.132;8.626;2023-06-22T11:33:15;33.50;40.10
10644;DHT22;5370;50.132;8.626;2023-06-22T11:35:40;33.60;40.50
10644;DHT22;5370;50.132;8.626;2023-06-22T11:38:06;33.70;40.40
10644;DHT22;5370;50.132;8.626;2023-06-22T11:40:33;33.90;40.00
10644;DHT22;5370;50.132;8.626;2023-06-22T11:42:58;33.90;39.70
10644;DHT22;5370;50.132;8.626;2023-06-22T11:45:24;33.80;39.60
10644;DHT22;5370;50.132;8.626;2023-06-22T11:47:49;33.90;40.10
10644;DHT22;5370;50.132;8.626;2023-06-22T11:50:15;33.90;39.90
10644;DHT22;5370;50.132;8.626;2023-06-22T11:52:40;33.90;39.70
10644;DHT22;5370;50.132;8.626;2023-06-22T11:55:06;33.80;39.70
10644;DHT22;5370;50.132;8.626;2023-06-22T11:57:35;33.80;40.30
10644;DHT22;5370;50.132;8.626;2023-06-22T12:00:01;33.90;40.30
10644;DHT22;5370;50.132;8.626;2023-06-22T12:02:27;34.20;40.60
10644;DHT22;5370;50.132;8.626;2023-06-22T12:04:52;34.50;40.00
10644;DHT22;5370;50.132;8.626;2023-06-22T12:07:20;34.70;39.40
10644;DHT22;5370;50.132;8.626;2023-06-22T12:09:45;34.90;39.20
10644;DHT22;5370;50.132;8.626;2023-06-22T12:12:11;35.00;38.80
10644;DHT22;5370;50.132;8.626;2023-06-22T12:14:36;35.10;38.70
10644;DHT22;5370;50.132;8.626;2023-06-22T12:17:02;35.20;38.60
10644;DHT22;5370;50.132;8.626;2023-06-22T12:19:27;35.30;38.70
10644;DHT22;5370;50.132;8.626;2023-06-22T12:21:53;35.30;38.30
10644;DHT22;5370;50.132;8.626;2023-06-22T12:24:18;35.30;38.80
10644;DHT22;5370;50.132;8.626;2023-06-22T12:26:44;35.30;38.30
10644;DHT22;5370;50.132;8.626;2023-06-22T12:29:09;35.20;38.10
10644;DHT22;5370;50.132;8.626;2023-06-22T12:31:36;35.20;38.40
10644;DHT22;5370;50.132;8.626;2023-06-22T12:34:04;35.20;38.60
10644;DHT22;5370;50.132;8.626;2023-06-22T12:36:29;35.30;38.50
10644;DHT22;5370;50.132;8.626;2023-06-22T12:38:55;35.30;38.90
10644;DHT22;5370;50.132;8.626;2023-06-22T12:41:20;35.30;38.60
10644;DHT22;5370;50.132;8.626;2023-06-22T12:43:46;35.40;38.70
10644;DHT22;5370;50.132;8.626;2023-06-22T12:46:12;35.40;38.40
10644;DHT22;5370;50.132;8.626;2023-06-22T12:48:37;35.50;38.20
10644;DHT22;5370;50.132;8.626;2023-06-22T12:51:07;35.60;37.80
10644;DHT22;5370;50.132;8.626;2023-06-22T12:53:33;35.70;37.40
10644;DHT22;5370;50.132;8.626;2023-06-22T12:55:59;35.70;37.40
10644;DHT22;5370;50.132;8.626;2023-06-22T12:58:24;35.70;37.60
10644;DHT22;5370;50.132;8.626;2023-06-22T13:00:50;35.70;37.70
10644;DHT22;5370;50.132;8.626;2023-06-22T13:03:16;35.70;37.70
10644;DHT22;5370;50.132;8.626;2023-06-22T13:05:41;35.80;37.80
10644;DHT22;5370;50.132;8.626;2023-06-22T13:08:07;35.90;37.80
10644;DHT22;5370;50.132;8.626;2023-06-22T13:10:33;35.90;37.70
10644;DHT22;5370;50.132;8.626;2023-06-22T13:12:59;35.90;37.70
10644;DHT22;5370;50.132;8.626;2023-06-22T13:15:27;35.90;37.80
10644;DHT22;5370;50.132;8.626;2023-06-22T13:17:53;36.00;37.70
10644;DHT22;5370;50.132;8.626;2023-06-22T13:20:19;36.00;37.50
10644;DHT22;5370;50.132;8.626;2023-06-22T13:22:44;36.00;37.50
10644;DHT22;5370;50.132;8.626;2023-06-22T13:25:10;35.90;37.60
10644;DHT22;5370;50.132;8.626;2023-06-22T13:27:44;35.90;37.90
10644;DHT22;5370;50.132;8.626;2023-06-22T13:30:10;36.00;38.50
10644;DHT22;5370;50.132;8.626;2023-06-22T13:32:36;36.20;38.00
10644;DHT22;5370;50.132;8.626;2023-06-22T13:35:01;36.40;37.90
10644;DHT22;5370;50.132;8.626;2023-06-22T13:37:27;36.50;37.40
10644;DHT22;5370;50.132;8.626;2023-06-22T13:39:52;36.40;37.00
10644;DHT22;5370;50.132;8.626;2023-06-22T13:42:18;36.40;37.50
10644;DHT22;5370;50.132;8.626;2023-06-22T13:44:44;36.40;37.70
10644;DHT22;5370;50.132;8.626;2023-06-22T13:47:09;36.30;37.50
10644;DHT22;5370;50.132;8.626;2023-06-22T13:49:35;36.20;37.50
10644;DHT22;5370;50.132;8.626;2023-06-22T13:52:00;36.10;37.50
10644;DHT22;5370;50.132;8.626;2023-06-22T13:54:26;35.90;37.50
10644;DHT22;5370;50.132;8.626;2023-06-22T13:56:51;35.90;37.90
10644;DHT22;5370;50.132;8.626;2023-06-22T13:59:18;35.80;38.00
10644;DHT22;5370;50.132;8.626;2023-06-22T14:01:45;35.70;38.30
10644;DHT22;5370;50.132;8.626;2023-06-22T14:04:10;35.70;38.60
10644;DHT22;5370;50.132;8.626;2023-06-22T14:06:36;35.90;38.50
10644;DHT22;5370;50.132;8.626;2023-06-22T14:09:01;35.90;38.30
10644;DHT22;5370;50.132;8.626;2023-06-22T14:11:27;36.00;38.10
10644;DHT22;5370;50.132;8.626;2023-06-22T14:13:53;36.00;38.20
10644;DHT22;5370;50.132;8.626;2023-06-22T14:16:18;36.00;38.30
10644;DHT22;5370;50.132;8.626;2023-06-22T14:18:45;36.20;38.50
10644;DHT22;5370;50.132;8.626;2023-06-22T14:21:10;36.30;38.20
10644;DHT22;5370;50.132;8.626;2023-06-22T14:23:36;36.40;37.90
10644;DHT22;5370;50.132;8.626;2023-06-22T14:26:03;36.40;38.20
10644;DHT22;5370;50.132;8.626;2023-06-22T14:28:28;36.30;37.90
10644;DHT22;5370;50.132;8.626;2023-06-22T14:30:54;36.20;37.80
10644;DHT22;5370;50.132;8.626;2023-06-22T14:33:19;36.00;37.30
10644;DHT22;5370;50.132;8.626;2023-06-22T14:35:45;36.00;37.50
10644;DHT22;5370;50.132;8.626;2023-06-22T14:38:10;36.00;36.70
10644;DHT22;5370;50.132;8.626;2023-06-22T14:40:36;36.10;35.80
10644;DHT22;5370;50.132;8.626;2023-06-22T14:43:01;36.00;34.80
10644;DHT22;5370;50.132;8.626;2023-06-22T14:45:27;35.90;34.30
10644;DHT22;5370;50.132;8.626;2023-06-22T14:47:52;35.80;34.30
10644;DHT22;5370;50.132;8.626;2023-06-22T14:50:18;35.60;34.30
10644;DHT22;5370;50.132;8.626;2023-06-22T14:52:44;35.30;34.50
10644;DHT22;5370;50.132;8.626;2023-06-22T14:55:09;35.10;34.90
10644;DHT22;5370;50.132;8.626;2023-06-22T14:57:35;34.90;35.10
10644;DHT22;5370;50.132;8.626;2023-06-22T15:00:00;34.80;35.20
10644;DHT22;5370;50.132;8.626;2023-06-22T15:02:27;34.80;35.40
10644;DHT22;5370;50.132;8.626;2023-06-22T15:04:53;34.70;35.60
10644;DHT22;5370;50.132;8.626;2023-06-22T15:07:19;34.60;35.80
10644;DHT22;5370;50.132;8.626;2023-06-22T15:09:45;34.50;35.80
10644;DHT22;5370;50.132;8.626;2023-06-22T15:12:11;34.40;35.90
10644;DHT22;5370;50.132;8.626;2023-06-22T15:14:39;34.30;36.00
10644;DHT22;5370;50.132;8.626;2023-06-22T15:17:05;34.20;36.00
10644;DHT22;5370;50.132;8.626;2023-06-22T15:19:31;34.10;36.20
10644;DHT22;5370;50.132;8.626;2023-06-22T15:21:56;34.00;36.40
10644;DHT22;5370;50.132;8.626;2023-06-22T15:24:22;33.80;36.60
10644;DHT22;5370;50.132;8.626;2023-06-22T15:26:47;33.70;36.80
10644;DHT22;5370;50.132;8.626;2023-06-22T15:29:13;33.50;37.00
10644;DHT22;5370;50.132;8.626;2023-06-22T15:31:38;33.30;37.40
10644;DHT22;5370;50.132;8.626;2023-06-22T15:34:04;33.10;37.70
10644;DHT22;5370;50.132;8.626;2023-06-22T15:36:30;32.90;37.90
10644;DHT22;5370;50.132;8.626;2023-06-22T15:38:55;32.70;39.20
10644;DHT22;5370;50.132;8.626;2023-06-22T15:41:21;32.20;40.70
10644;DHT22;5370;50.132;8.626;2023-06-22T15:43:48;31.70;42.10
10644;DHT22;5370;50.132;8.626;2023-06-22T15:46:13;31.30;43.30
10644;DHT22;5370;50.132;8.626;2023-06-22T15:48:41;30.80;44.10
10644;DHT22;5370;50.132;8.626;2023-06-22T15:51:06;30.20;44.60
10644;DHT22;5370;50.132;8.626;2023-06-22T15:53:32;29.80;45.20
10644;DHT22;5370;50.132;8.626;2023-06-22T15:55:57;29.40;45.80